createdAt,value
2023-04-10T00:00:45.810Z,11.60
2023-04-10T00:03:14.212Z,13.40
2023-04-10T00:05:42.725Z,12.07
2023-04-10T00:08:11.097Z,11.85
2023-04-10T00:10:40.069Z,11.25
2023-04-10T00:13:09.670Z,10.65
2023-04-10T00:15:37.881Z,10.77
2023-04-10T00:18:06.224Z,10.98
2023-04-10T00:20:34.581Z,10.13
2023-04-10T00:23:02.766Z,11.50
2023-04-10T00:25:31.112Z,10.00
2023-04-10T00:27:59.444Z,8.27
2023-04-10T00:30:29.330Z,9.43
2023-04-10T00:32:57.665Z,9.90
2023-04-10T00:35:25.954Z,9.10
2023-04-10T00:37:54.741Z,8.50
2023-04-10T00:40:22.993Z,8.45
2023-04-10T00:42:51.667Z,7.63
2023-04-10T00:45:20.185Z,8.98
2023-04-10T00:47:50.107Z,9.70
2023-04-10T00:50:18.789Z,7.88
2023-04-10T00:52:47.099Z,7.97
2023-04-10T00:55:16.063Z,8.82
2023-04-10T00:57:46.725Z,9.85
2023-04-10T01:00:16.610Z,8.18
2023-04-10T01:02:45.189Z,8.73
2023-04-10T01:05:15.570Z,8.98
2023-04-10T01:07:54.650Z,10.38
2023-04-10T01:10:32.467Z,10.15
2023-04-10T01:13:07.817Z,9.68
2023-04-10T01:15:44.628Z,8.88
2023-04-10T01:18:20.518Z,9.98
2023-04-10T01:20:50.545Z,10.50
2023-04-10T01:23:47.212Z,9.88
2023-04-10T01:26:18.070Z,10.55
2023-04-10T01:29:01.565Z,9.13
2023-04-10T01:31:37.798Z,9.35
2023-04-10T01:34:09.986Z,9.65
2023-04-10T01:36:44.028Z,8.90
2023-04-10T01:39:13.389Z,9.40
2023-04-10T01:41:45.286Z,10.57
2023-04-10T01:44:17.264Z,10.90
2023-04-10T01:46:47.052Z,14.60
2023-04-10T01:49:17.608Z,9.02
2023-04-10T01:51:47.726Z,10.82
2023-04-10T01:54:17.032Z,10.25
2023-04-10T01:56:45.660Z,10.55
2023-04-10T01:59:17.934Z,10.57
2023-04-10T02:01:46.520Z,11.07
2023-04-10T02:04:14.834Z,9.55
2023-04-10T02:06:49.113Z,12.23
2023-04-10T02:09:23.132Z,12.95
2023-04-10T02:12:00.030Z,13.10
2023-04-10T02:14:33.204Z,14.77
2023-04-10T02:17:04.371Z,11.73
2023-04-10T02:19:34.109Z,11.75
2023-04-10T02:22:02.705Z,15.50
2023-04-10T02:24:31.168Z,12.57
2023-04-10T02:26:59.555Z,13.40
2023-04-10T02:29:27.793Z,11.15
2023-04-10T02:31:57.506Z,11.95
2023-04-10T02:34:26.105Z,11.73
2023-04-10T02:36:54.870Z,12.40
2023-04-10T02:39:23.243Z,12.35
2023-04-10T02:41:53.456Z,10.55
2023-04-10T02:44:22.012Z,13.23
2023-04-10T02:46:50.407Z,11.65
2023-04-10T02:49:20.689Z,10.80
2023-04-10T02:51:48.936Z,11.15
2023-04-10T02:54:17.243Z,11.73
2023-04-10T02:56:45.791Z,12.13
2023-04-10T02:59:14.056Z,11.95
2023-04-10T03:01:43.232Z,12.25
2023-04-10T03:04:11.719Z,11.05
2023-04-10T03:06:43.423Z,11.82
2023-04-10T03:09:11.686Z,12.25
2023-04-10T03:11:39.961Z,13.80
2023-04-10T03:14:09.763Z,13.85
2023-04-10T03:16:38.195Z,12.77
2023-04-10T03:19:06.407Z,11.90
2023-04-10T03:21:34.625Z,13.57
2023-04-10T03:24:04.297Z,14.10
2023-04-10T03:26:33.285Z,18.73
2023-04-10T03:29:02.030Z,17.13
2023-04-10T03:31:30.547Z,16.77
2023-04-10T03:34:01.545Z,27.95
2023-04-10T03:36:29.775Z,30.75
2023-04-10T03:38:57.970Z,19.30
2023-04-10T03:41:27.681Z,20.95
2023-04-10T03:43:56.799Z,17.27
2023-04-10T03:46:25.870Z,18.88
2023-04-10T03:48:54.943Z,20.23
2023-04-10T03:51:24.620Z,14.82
2023-04-10T03:53:53.537Z,17.65
2023-04-10T03:56:22.688Z,15.75
2023-04-10T03:58:52.536Z,18.75
2023-04-10T04:01:22.236Z,18.85
2023-04-10T04:04:01.253Z,19.83
2023-04-10T04:06:49.996Z,16.83
2023-04-10T04:09:26.960Z,16.90
2023-04-10T04:12:18.258Z,15.07
2023-04-10T04:15:09.474Z,15.98
2023-04-10T04:18:07.454Z,16.30
2023-04-10T04:20:44.638Z,15.32
2023-04-10T04:23:36.090Z,25.98
2023-04-10T04:26:14.229Z,18.60
2023-04-10T04:29:08.389Z,18.05
2023-04-10T04:31:40.830Z,17.50
2023-04-10T04:34:41.740Z,20.73
2023-04-10T04:37:25.612Z,18.95
2023-04-10T04:40:23.164Z,17.73
2023-04-10T04:43:14.561Z,15.98
2023-04-10T04:46:14.797Z,20.85
2023-04-10T04:49:14.593Z,18.08
2023-04-10T04:51:53.048Z,19.20
2023-04-10T04:54:56.402Z,18.80
2023-04-10T04:57:33.358Z,23.30
2023-04-10T05:00:23.603Z,19.83
2023-04-10T05:03:24.243Z,27.23
2023-04-10T05:06:03.463Z,21.27
2023-04-10T05:08:48.246Z,20.13
2023-04-10T05:11:42.376Z,21.65
2023-04-10T05:14:21.796Z,21.02
2023-04-10T05:17:15.094Z,22.85
2023-04-10T05:19:46.565Z,19.80
2023-04-10T05:22:35.533Z,17.75
2023-04-10T05:25:22.533Z,18.77
2023-04-10T05:28:23.431Z,18.70
2023-04-10T05:31:10.196Z,18.80
2023-04-10T05:34:04.608Z,22.92
2023-04-10T05:36:56.173Z,23.33
2023-04-10T05:39:47.432Z,21.63
2023-04-10T05:42:35.521Z,24.63
2023-04-10T05:45:28.707Z,23.48
2023-04-10T05:48:15.915Z,22.08
2023-04-10T05:51:13.558Z,23.55
2023-04-10T05:54:00.535Z,24.33
2023-04-10T05:56:44.148Z,18.70
2023-04-10T05:59:50.600Z,23.23
2023-04-10T06:02:42.044Z,18.90
2023-04-10T06:05:18.059Z,19.30
2023-04-10T06:07:46.951Z,19.00
2023-04-10T06:10:16.266Z,19.83
2023-04-10T06:12:45.955Z,24.20
2023-04-10T06:15:15.570Z,19.92
2023-04-10T06:17:44.698Z,20.40
2023-04-10T06:20:13.747Z,22.60
2023-04-10T06:22:42.091Z,24.33
2023-04-10T06:25:11.197Z,20.75
2023-04-10T06:27:39.586Z,20.40
2023-04-10T06:30:12.604Z,23.23
2023-04-10T06:32:40.895Z,16.25
2023-04-10T06:35:10.049Z,19.88
2023-04-10T06:37:38.468Z,19.77
2023-04-10T06:40:08.868Z,17.75
2023-04-10T06:42:37.658Z,20.40
2023-04-10T06:45:24.020Z,17.02
2023-04-10T06:47:52.733Z,17.67
2023-04-10T06:50:21.047Z,19.85
2023-04-10T06:52:49.743Z,19.55
2023-04-10T06:55:18.194Z,22.25
2023-04-10T06:57:46.464Z,19.80
2023-04-10T07:00:15.694Z,27.75
2023-04-10T07:02:46.074Z,20.80
2023-04-10T07:05:14.742Z,24.33
2023-04-10T07:07:43.392Z,22.08
2023-04-10T07:10:13.142Z,17.10
2023-04-10T07:12:41.536Z,19.58
2023-04-10T07:15:12.424Z,21.88
2023-04-10T07:17:41.012Z,18.88
2023-04-10T07:20:11.932Z,18.77
2023-04-10T07:22:40.534Z,19.73
2023-04-10T07:25:09.914Z,22.42
2023-04-10T07:27:38.100Z,20.17
2023-04-10T07:30:07.528Z,20.25
2023-04-10T07:32:39.861Z,19.92
2023-04-10T07:35:10.734Z,19.50
2023-04-10T07:37:39.875Z,18.70
2023-04-10T07:40:09.643Z,24.13
2023-04-10T07:42:38.090Z,18.83
2023-04-10T07:45:07.293Z,17.88
2023-04-10T07:47:35.656Z,17.70
2023-04-10T07:50:03.982Z,17.95
2023-04-10T07:52:33.957Z,16.45
2023-04-10T07:55:03.153Z,16.48
2023-04-10T07:57:32.418Z,17.40
2023-04-10T08:00:00.858Z,18.33
2023-04-10T08:02:29.245Z,15.63
2023-04-10T08:04:57.626Z,19.13
2023-04-10T08:07:25.972Z,15.60
2023-04-10T08:09:55.569Z,16.98
2023-04-10T08:12:23.753Z,16.73
2023-04-10T08:14:52.697Z,19.42
2023-04-10T08:17:21.487Z,16.02
2023-04-10T08:19:49.706Z,17.15
2023-04-10T08:22:18.229Z,16.25
2023-04-10T08:24:46.401Z,15.30
2023-04-10T08:27:16.357Z,15.63
2023-04-10T08:29:44.814Z,17.20
2023-04-10T08:32:13.008Z,15.05
2023-04-10T08:34:41.222Z,16.10
2023-04-10T08:37:12.307Z,17.08
2023-04-10T08:39:40.625Z,18.00
2023-04-10T08:42:08.939Z,15.10
2023-04-10T08:44:39.260Z,16.30
2023-04-10T08:47:09.597Z,18.40
2023-04-10T08:49:44.465Z,16.42
2023-04-10T08:52:17.720Z,15.40
2023-04-10T08:54:56.079Z,13.85
2023-04-10T08:57:26.984Z,17.42
2023-04-10T08:59:56.725Z,15.00
2023-04-10T09:02:25.941Z,20.90
2023-04-10T09:04:56.185Z,25.38
2023-04-10T09:07:24.623Z,17.50
2023-04-10T09:09:53.025Z,20.05
2023-04-10T09:12:21.299Z,18.70
2023-04-10T09:14:53.437Z,14.93
2023-04-10T09:17:24.456Z,12.87
2023-04-10T09:19:54.305Z,16.43
2023-04-10T09:22:32.384Z,13.23
2023-04-10T09:25:01.879Z,10.95
2023-04-10T09:27:32.520Z,13.25
2023-04-10T09:30:01.030Z,12.40
2023-04-10T09:32:41.967Z,11.75
2023-04-10T09:35:11.783Z,11.95
2023-04-10T09:37:41.667Z,15.82
2023-04-10T09:40:22.029Z,12.13
2023-04-10T09:42:50.629Z,12.57
2023-04-10T09:45:20.536Z,14.45
2023-04-10T09:48:04.728Z,12.88
2023-04-10T09:50:39.537Z,12.77
2023-04-10T09:53:08.849Z,11.10
2023-04-10T09:55:38.027Z,11.80
2023-04-10T09:58:07.225Z,11.50
2023-04-10T10:00:42.216Z,12.35
2023-04-10T10:03:14.944Z,14.63
2023-04-10T10:05:45.074Z,14.05
2023-04-10T10:08:15.022Z,13.50
2023-04-10T10:10:48.225Z,11.55
2023-04-10T10:13:26.257Z,12.52
2023-04-10T10:16:01.860Z,10.90
2023-04-10T10:18:40.557Z,11.05
2023-04-10T10:21:10.554Z,11.82
2023-04-10T10:23:39.829Z,11.60
2023-04-10T10:26:09.063Z,12.33
2023-04-10T10:28:37.730Z,12.67
2023-04-10T10:31:06.848Z,13.15
2023-04-10T10:33:39.260Z,13.60
2023-04-10T10:36:10.850Z,14.73
2023-04-10T10:38:42.980Z,13.13
2023-04-10T10:41:17.781Z,13.73
2023-04-10T10:43:54.626Z,12.60
2023-04-10T10:46:33.750Z,12.30
2023-04-10T10:49:03.432Z,12.30
2023-04-10T10:51:45.188Z,12.80
2023-04-10T10:54:29.696Z,11.20
2023-04-10T10:56:57.914Z,12.43
2023-04-10T10:59:59.865Z,11.80
2023-04-10T11:02:28.150Z,10.77
2023-04-10T11:04:57.910Z,11.20
2023-04-10T11:08:04.585Z,11.33
2023-04-10T11:11:02.954Z,10.90
2023-04-10T11:13:31.333Z,10.33
2023-04-10T11:16:02.135Z,11.67
2023-04-10T11:19:13.263Z,12.03
2023-04-10T11:22:07.476Z,11.10
2023-04-10T11:24:58.798Z,11.50
2023-04-10T11:27:45.188Z,12.00
2023-04-10T11:30:34.471Z,10.63
2023-04-10T11:33:04.572Z,11.50
2023-04-10T11:35:33.972Z,11.10
2023-04-10T11:38:16.047Z,12.80
2023-04-10T11:41:05.558Z,11.90
2023-04-10T11:43:35.316Z,10.90
2023-04-10T11:46:05.725Z,10.90
2023-04-10T11:48:34.795Z,10.87
2023-04-10T11:51:11.377Z,10.93
2023-04-10T11:53:41.558Z,10.47
2023-04-10T11:56:17.802Z,12.10
2023-04-10T11:58:46.341Z,12.77
2023-04-10T12:01:15.630Z,11.90
2023-04-10T12:03:45.373Z,12.20
2023-04-10T12:06:15.151Z,11.43
2023-04-10T12:08:47.654Z,13.33
2023-04-10T12:11:18.905Z,14.83
2023-04-10T12:13:47.854Z,13.07
2023-04-10T12:16:16.698Z,13.23
2023-04-10T12:18:45.898Z,14.83
2023-04-10T12:21:14.365Z,13.87
2023-04-10T12:23:45.362Z,13.10
2023-04-10T12:26:15.721Z,12.80
2023-04-10T12:28:52.442Z,12.98
2023-04-10T12:31:29.308Z,13.23
2023-04-10T12:33:58.659Z,14.70
2023-04-10T12:36:29.416Z,13.30
2023-04-10T12:39:00.442Z,11.32
2023-04-10T12:41:30.904Z,10.27
2023-04-10T12:44:09.281Z,12.20
2023-04-10T12:46:38.132Z,9.27
2023-04-10T12:49:14.405Z,11.75
2023-04-10T12:51:43.727Z,10.63
2023-04-10T12:54:27.018Z,10.45
2023-04-10T12:56:56.009Z,13.88
2023-04-10T12:59:24.722Z,13.27
2023-04-10T13:01:53.087Z,14.35
2023-04-10T13:04:22.178Z,15.05
2023-04-10T13:06:52.987Z,16.38
2023-04-10T13:09:23.230Z,17.17
2023-04-10T13:11:52.866Z,19.65
2023-04-10T13:14:21.107Z,18.42
2023-04-10T13:16:49.325Z,18.08
2023-04-10T13:19:17.507Z,17.20
2023-04-10T13:21:45.755Z,19.15
2023-04-10T13:24:16.499Z,15.13
2023-04-10T13:26:46.410Z,17.75
2023-04-10T13:29:14.645Z,13.90
2023-04-10T13:31:42.796Z,12.73
2023-04-10T13:34:11.670Z,12.70
2023-04-10T13:36:40.107Z,11.97
2023-04-10T13:39:08.436Z,11.80
2023-04-10T13:41:36.665Z,11.30
2023-04-10T13:44:06.374Z,12.27
2023-04-10T13:46:34.544Z,12.33
2023-04-10T13:49:02.941Z,12.70
2023-04-10T13:51:31.634Z,11.20
2023-04-10T13:54:00.030Z,11.57
2023-04-10T13:56:30.240Z,13.10
2023-04-10T13:58:58.531Z,12.70
2023-04-10T14:01:28.244Z,12.97
2023-04-10T14:03:56.794Z,11.33
2023-04-10T14:06:25.186Z,11.70
2023-04-10T14:08:54.192Z,13.57
2023-04-10T14:11:23.349Z,8.13
2023-04-10T14:13:51.600Z,8.67
2023-04-10T14:16:19.858Z,8.17
2023-04-10T14:18:49.674Z,7.67
2023-04-10T14:21:19.443Z,7.93
2023-04-10T14:23:49.040Z,9.43
2023-04-10T14:26:17.327Z,11.70
2023-04-10T14:28:45.578Z,11.47
2023-04-10T14:31:13.859Z,9.40
2023-04-10T14:33:42.233Z,9.07
2023-04-10T14:36:12.616Z,8.83
2023-04-10T14:38:40.972Z,15.60
2023-04-10T14:41:09.212Z,8.90
2023-04-10T14:43:38.757Z,9.13
2023-04-10T14:46:07.653Z,13.45
2023-04-10T14:48:36.099Z,10.05
2023-04-10T14:51:05.549Z,10.75
2023-04-10T14:53:35.155Z,11.60
2023-04-10T14:56:10.201Z,12.20
2023-04-10T14:58:38.483Z,12.45
2023-04-10T15:01:10.380Z,9.95
2023-04-10T15:03:39.121Z,10.07
2023-04-10T15:06:08.459Z,9.63
2023-04-10T15:08:38.178Z,10.18
2023-04-10T15:11:06.984Z,9.82
2023-04-10T15:13:36.035Z,12.77
2023-04-10T15:16:04.298Z,10.30
2023-04-10T15:18:32.613Z,9.70
2023-04-10T15:21:00.901Z,10.82
2023-04-10T15:23:29.078Z,11.82
2023-04-10T15:25:58.883Z,13.07
2023-04-10T15:28:28.224Z,11.13
2023-04-10T15:30:57.749Z,12.55
2023-04-10T15:33:26.006Z,11.88
2023-04-10T15:35:54.166Z,11.73
2023-04-10T15:38:22.468Z,12.98
2023-04-10T15:40:50.784Z,12.18
2023-04-10T15:43:20.340Z,11.95
2023-04-10T15:45:48.667Z,10.82
2023-04-10T15:48:17.056Z,10.77
2023-04-10T15:50:45.328Z,11.40
2023-04-10T15:53:13.585Z,13.13
2023-04-10T15:55:42.004Z,14.20
2023-04-10T15:58:10.238Z,12.70
2023-04-10T16:00:39.863Z,14.73
2023-04-10T16:03:08.222Z,16.38
2023-04-10T16:05:36.609Z,14.60
2023-04-10T16:08:05.406Z,14.25
2023-04-10T16:10:33.717Z,13.55
2023-04-10T16:13:04.408Z,14.68
2023-04-10T16:15:35.448Z,13.35
2023-04-10T16:18:06.467Z,13.45
2023-04-10T16:20:35.538Z,14.60
2023-04-10T16:23:03.823Z,13.80
2023-04-10T16:25:32.030Z,14.02
2023-04-10T16:28:00.161Z,14.45
2023-04-10T16:30:28.535Z,15.82
2023-04-10T16:32:56.906Z,15.35
2023-04-10T16:35:26.556Z,14.68
2023-04-10T16:37:54.982Z,21.30
2023-04-10T16:40:23.409Z,18.30
2023-04-10T16:42:51.658Z,9.85
2023-04-10T16:45:19.992Z,7.57
2023-04-10T16:47:48.203Z,8.02
2023-04-10T16:50:16.574Z,7.20
2023-04-10T16:52:46.117Z,6.88
2023-04-10T16:55:14.551Z,9.00
2023-04-10T16:57:43.621Z,8.25
2023-04-10T17:00:12.788Z,9.45
2023-04-10T17:02:42.841Z,7.35
2023-04-10T17:05:13.621Z,8.32
2023-04-10T17:07:43.677Z,8.73
2023-04-10T17:10:14.744Z,10.07
2023-04-10T17:12:43.592Z,9.00
2023-04-10T17:15:13.058Z,10.15
2023-04-10T17:17:41.233Z,9.40
2023-04-10T17:20:10.291Z,9.38
2023-04-10T17:22:39.336Z,8.90
2023-04-10T17:25:08.748Z,9.48
2023-04-10T17:27:40.611Z,11.20
2023-04-10T17:30:12.927Z,8.95
2023-04-10T17:32:41.822Z,9.73
2023-04-10T17:35:10.560Z,11.45
2023-04-10T17:37:38.706Z,12.85
2023-04-10T17:40:08.352Z,12.52
2023-04-10T17:42:36.541Z,11.68
2023-04-10T17:45:07.302Z,12.85
2023-04-10T17:47:35.925Z,13.73
2023-04-10T17:50:04.297Z,14.90
2023-04-10T17:52:32.465Z,16.02
2023-04-10T17:55:01.623Z,16.95
2023-04-10T17:57:29.869Z,19.83
2023-04-10T17:59:58.061Z,14.63
2023-04-10T18:02:27.719Z,19.90
2023-04-10T18:04:57.791Z,14.65
2023-04-10T18:07:26.027Z,20.02
2023-04-10T18:09:54.310Z,16.80
2023-04-10T18:12:22.544Z,14.15
2023-04-10T18:14:50.904Z,16.95
2023-04-10T18:17:19.036Z,17.05
2023-04-10T18:19:48.849Z,21.45
2023-04-10T18:22:17.002Z,17.83
2023-04-10T18:24:47.448Z,21.40
2023-04-10T18:27:16.301Z,21.70
2023-04-10T18:29:44.595Z,21.75
2023-04-10T18:32:12.861Z,21.48
2023-04-10T18:34:41.114Z,23.75
2023-04-10T18:37:10.776Z,19.40
2023-04-10T18:39:38.993Z,19.10
2023-04-10T18:42:09.044Z,21.77
2023-04-10T18:44:37.368Z,24.33
2023-04-10T18:47:05.813Z,20.48
2023-04-10T18:49:34.186Z,21.77
2023-04-10T18:52:02.447Z,21.02
2023-04-10T18:54:32.078Z,24.95
2023-04-10T18:57:00.446Z,18.00
2023-04-10T18:59:29.308Z,21.92
2023-04-10T19:01:57.572Z,21.52
2023-04-10T19:04:26.051Z,19.83
2023-04-10T19:06:54.331Z,20.00
2023-04-10T19:09:22.566Z,19.23
2023-04-10T19:11:53.706Z,19.70
2023-04-10T19:14:22.450Z,19.67
2023-04-10T19:16:50.727Z,19.17
2023-04-10T19:19:18.937Z,18.48
2023-04-10T19:21:47.149Z,19.60
2023-04-10T19:24:15.506Z,19.02
2023-04-10T19:26:43.757Z,19.45
2023-04-10T19:29:13.601Z,22.05
2023-04-10T19:31:41.840Z,22.80
2023-04-10T19:34:11.396Z,22.60
2023-04-10T19:36:39.581Z,23.33
2023-04-10T19:39:08.679Z,26.75
2023-04-10T19:41:41.817Z,28.25
2023-04-10T19:44:10.311Z,22.42
2023-04-10T19:46:39.993Z,22.05
2023-04-10T19:49:08.308Z,21.27
2023-04-10T19:51:36.561Z,19.70
2023-04-10T19:54:04.746Z,22.38
2023-04-10T19:56:34.959Z,22.10
2023-04-10T19:59:03.253Z,22.20
2023-04-10T20:01:31.439Z,23.42
2023-04-10T20:04:01.199Z,18.80
2023-04-10T20:06:29.709Z,19.60
2023-04-10T20:08:58.005Z,18.67
2023-04-10T20:11:30.526Z,15.75
2023-04-10T20:13:59.009Z,18.42
2023-04-10T20:16:27.512Z,17.38
2023-04-10T20:18:56.212Z,19.35
2023-04-10T20:21:27.624Z,18.40
2023-04-10T20:23:57.471Z,19.27
2023-04-10T20:26:26.310Z,19.05
2023-04-10T20:28:55.262Z,16.73
2023-04-10T20:31:23.670Z,19.95
2023-04-10T20:33:53.846Z,21.55
2023-04-10T20:36:22.109Z,19.00
2023-04-10T20:38:51.872Z,18.65
2023-04-10T20:41:20.089Z,21.50
2023-04-10T20:43:48.278Z,20.52
2023-04-10T20:46:16.576Z,19.35
2023-04-10T20:48:45.034Z,24.70
2023-04-10T20:51:13.248Z,23.13
2023-04-10T20:53:41.456Z,25.27
2023-04-10T20:56:11.210Z,28.35
2023-04-10T20:58:39.575Z,29.10
2023-04-10T21:01:09.835Z,29.35
2023-04-10T21:03:38.323Z,31.80
2023-04-10T21:06:07.733Z,31.30
2023-04-10T21:08:36.075Z,31.80
2023-04-10T21:11:04.246Z,27.27
2023-04-10T21:13:34.181Z,26.40
2023-04-10T21:16:03.373Z,24.05
2023-04-10T21:18:31.710Z,30.95
2023-04-10T21:20:59.913Z,23.77
2023-04-10T21:23:28.138Z,22.65
2023-04-10T21:25:56.275Z,20.50
2023-04-10T21:28:24.638Z,20.42
2023-04-10T21:30:54.224Z,20.05
2023-04-10T21:33:22.521Z,23.02
2023-04-10T21:35:50.715Z,21.73
2023-04-10T21:38:19.481Z,23.20
2023-04-10T21:40:51.911Z,25.35
2023-04-10T21:43:20.539Z,24.15
2023-04-10T21:45:49.071Z,25.42
2023-04-10T21:48:19.587Z,21.30
2023-04-10T21:50:48.121Z,26.42
2023-04-10T21:53:16.418Z,22.15
2023-04-10T21:55:44.734Z,26.42
2023-04-10T21:58:13.029Z,23.90
2023-04-10T22:00:42.620Z,23.15
2023-04-10T22:03:11.030Z,26.95
2023-04-10T22:05:40.771Z,25.50
2023-04-10T22:08:09.088Z,20.80
2023-04-10T22:10:38.106Z,21.65
2023-04-10T22:13:06.774Z,23.35
2023-04-10T22:15:37.028Z,21.80
2023-04-10T22:18:05.382Z,24.65
2023-04-10T22:20:33.590Z,24.58
2023-04-10T22:23:04.370Z,21.38
2023-04-10T22:25:32.926Z,20.23
2023-04-10T22:28:01.106Z,21.30
2023-04-10T22:30:29.486Z,18.90
2023-04-10T22:32:57.981Z,21.10
2023-04-10T22:35:26.200Z,17.42
2023-04-10T22:37:54.442Z,15.95
2023-04-10T22:40:24.008Z,16.13
2023-04-10T22:42:52.244Z,19.48
2023-04-10T22:45:20.583Z,17.35
2023-04-10T22:47:48.820Z,16.45
2023-04-10T22:50:17.152Z,15.00
2023-04-10T22:52:45.417Z,15.43
2023-04-10T22:55:14.398Z,15.60
2023-04-10T22:57:48.439Z,15.48
2023-04-10T23:00:17.240Z,16.08
2023-04-10T23:02:45.570Z,14.95
2023-04-10T23:05:13.897Z,15.48
2023-04-10T23:07:42.186Z,13.77
2023-04-10T23:10:10.688Z,15.63
2023-04-10T23:12:38.865Z,16.95
2023-04-10T23:15:09.603Z,15.25
2023-04-10T23:17:38.047Z,16.05
2023-04-10T23:20:07.475Z,14.85
2023-04-10T23:22:35.795Z,18.95
2023-04-10T23:25:03.994Z,16.48
2023-04-10T23:27:32.300Z,16.02
2023-04-10T23:30:02.046Z,17.88
2023-04-10T23:32:31.866Z,14.50
2023-04-10T23:35:00.174Z,17.90
2023-04-10T23:37:28.356Z,18.55
2023-04-10T23:39:56.643Z,19.40
2023-04-10T23:42:25.030Z,19.30
2023-04-10T23:44:53.522Z,20.80
2023-04-10T23:47:21.857Z,27.35
2023-04-10T23:49:51.377Z,25.58
2023-04-10T23:52:19.611Z,24.10
2023-04-10T23:54:47.898Z,21.95
2023-04-10T23:57:16.163Z,27.27
2023-04-10T23:59:44.620Z,28.27
